sensor_id;sensor_type;location;lat;lon;timestamp;temperature;humidity
27667;DHT22;15074;50.940;5.282;2024-03-08T00:01:53;5.40;99.90
27667;DHT22;15074;50.940;5.282;2024-03-08T00:04:25;5.30;99.90
27667;DHT22;15074;50.940;5.282;2024-03-08T00:06:54;5.20;99.90
27667;DHT22;15074;50.940;5.282;2024-03-08T00:09:20;5.30;99.90
27667;DHT22;15074;50.940;5.282;2024-03-08T00:11:47;5.30;99.90
27667;DHT22;15074;50.940;5.282;2024-03-08T00:14:17;5.30;99.90
27667;DHT22;15074;50.940;5.282;2024-03-08T00:16:50;5.30;99.90
27667;DHT22;15074;50.940;5.282;2024-03-08T00:19:25;5.20;99.90
27667;DHT22;15074;50.940;5.282;2024-03-08T00:22:16;5.30;99.90
27667;DHT22;15074;50.940;5.282;2024-03-08T00:24:43;5.30;99.90
27667;DHT22;15074;50.940;5.282;2024-03-08T00:27:35;5.20;99.90
27667;DHT22;15074;50.940;5.282;2024-03-08T00:30:22;5.20;99.90
27667;DHT22;15074;50.940;5.282;2024-03-08T00:32:49;5.20;99.90
27667;DHT22;15074;50.940;5.282;2024-03-08T00:35:28;5.10;99.90
27667;DHT22;15074;50.940;5.282;2024-03-08T00:37:55;5.00;99.90
27667;DHT22;15074;50.940;5.282;2024-03-08T00:40:22;5.00;99.90
27667;DHT22;15074;50.940;5.282;2024-03-08T00:42:49;4.90;99.90
27667;DHT22;15074;50.940;5.282;2024-03-08T00:45:23;5.00;99.90
27667;DHT22;15074;50.940;5.282;2024-03-08T00:47:50;4.90;99.90
27667;DHT22;15074;50.940;5.282;2024-03-08T00:50:15;4.90;99.90
27667;DHT22;15074;50.940;5.282;2024-03-08T00:52:42;4.80;99.90
27667;DHT22;15074;50.940;5.282;2024-03-08T00:55:10;4.80;99.90
27667;DHT22;15074;50.940;5.282;2024-03-08T00:57:36;4.80;99.90
27667;DHT22;15074;50.940;5.282;2024-03-08T01:00:06;4.70;99.90
27667;DHT22;15074;50.940;5.282;2024-03-08T01:02:40;4.80;99.90
27667;DHT22;15074;50.940;5.282;2024-03-08T01:05:07;4.70;99.90
27667;DHT22;15074;50.940;5.282;2024-03-08T01:07:35;4.70;99.90
27667;DHT22;15074;50.940;5.282;2024-03-08T01:10:04;4.70;99.90
27667;DHT22;15074;50.940;5.282;2024-03-08T01:12:45;4.80;99.90
27667;DHT22;15074;50.940;5.282;2024-03-08T01:15:20;4.70;99.90
27667;DHT22;15074;50.940;5.282;2024-03-08T01:18:06;4.70;99.90
27667;DHT22;15074;50.940;5.282;2024-03-08T01:20:38;4.60;99.90
27667;DHT22;15074;50.940;5.282;2024-03-08T01:23:10;4.60;99.90
27667;DHT22;15074;50.940;5.282;2024-03-08T01:25:38;4.60;99.90
27667;DHT22;15074;50.940;5.282;2024-03-08T01:28:05;4.50;99.90
27667;DHT22;15074;50.940;5.282;2024-03-08T01:30:32;4.40;99.90
27667;DHT22;15074;50.940;5.282;2024-03-08T01:33:00;4.40;99.90
27667;DHT22;15074;50.940;5.282;2024-03-08T01:35:26;4.40;99.90
27667;DHT22;15074;50.940;5.282;2024-03-08T01:37:54;4.40;99.90
27667;DHT22;15074;50.940;5.282;2024-03-08T01:40:20;4.40;99.90
27667;DHT22;15074;50.940;5.282;2024-03-08T01:42:48;4.30;99.90
27667;DHT22;15074;50.940;5.282;2024-03-08T01:45:14;4.30;99.90
27667;DHT22;15074;50.940;5.282;2024-03-08T01:47:48;4.30;99.90
27667;DHT22;15074;50.940;5.282;2024-03-08T01:50:14;4.30;99.90
27667;DHT22;15074;50.940;5.282;2024-03-08T01:52:42;4.30;99.90
27667;DHT22;15074;50.940;5.282;2024-03-08T01:55:11;4.20;99.90
27667;DHT22;15074;50.940;5.282;2024-03-08T01:57:39;4.10;99.90
27667;DHT22;15074;50.940;5.282;2024-03-08T02:00:21;4.20;99.90
27667;DHT22;15074;50.940;5.282;2024-03-08T02:02:55;4.20;99.90
27667;DHT22;15074;50.940;5.282;2024-03-08T02:05:34;4.10;99.90
27667;DHT22;15074;50.940;5.282;2024-03-08T02:08:13;4.10;99.90
27667;DHT22;15074;50.940;5.282;2024-03-08T02:10:46;4.10;99.90
27667;DHT22;15074;50.940;5.282;2024-03-08T02:13:13;4.00;99.90
27667;DHT22;15074;50.940;5.282;2024-03-08T02:16:07;4.00;99.90
27667;DHT22;15074;50.940;5.282;2024-03-08T02:18:43;3.90;99.90
27667;DHT22;15074;50.940;5.282;2024-03-08T02:21:11;3.90;99.90
27667;DHT22;15074;50.940;5.282;2024-03-08T02:23:40;3.90;99.90
27667;DHT22;15074;50.940;5.282;2024-03-08T02:26:08;3.90;99.90
27667;DHT22;15074;50.940;5.282;2024-03-08T02:28:36;3.90;99.90
27667;DHT22;15074;50.940;5.282;2024-03-08T02:31:05;3.90;99.90
27667;DHT22;15074;50.940;5.282;2024-03-08T02:33:33;3.90;99.90
27667;DHT22;15074;50.940;5.282;2024-03-08T02:36:01;3.80;99.90
27667;DHT22;15074;50.940;5.282;2024-03-08T02:38:46;3.80;99.90
27667;DHT22;15074;50.940;5.282;2024-03-08T02:41:13;3.90;99.90
27667;DHT22;15074;50.940;5.282;2024-03-08T02:43:39;3.90;99.90
27667;DHT22;15074;50.940;5.282;2024-03-08T02:46:12;3.80;99.90
27667;DHT22;15074;50.940;5.282;2024-03-08T02:48:40;3.90;99.90
27667;DHT22;15074;50.940;5.282;2024-03-08T02:51:10;3.80;99.90
27667;DHT22;15074;50.940;5.282;2024-03-08T02:53:44;3.70;99.90
27667;DHT22;15074;50.940;5.282;2024-03-08T02:56:12;3.70;99.90
27667;DHT22;15074;50.940;5.282;2024-03-08T02:58:49;3.70;99.90
27667;DHT22;15074;50.940;5.282;2024-03-08T03:01:20;3.70;99.90
27667;DHT22;15074;50.940;5.282;2024-03-08T03:03:54;3.70;99.90
27667;DHT22;15074;50.940;5.282;2024-03-08T03:06:39;3.70;99.90
27667;DHT22;15074;50.940;5.282;2024-03-08T03:09:13;3.70;99.90
27667;DHT22;15074;50.940;5.282;2024-03-08T03:11:51;3.70;99.90
27667;DHT22;15074;50.940;5.282;2024-03-08T03:14:17;3.60;99.90
27667;DHT22;15074;50.940;5.282;2024-03-08T03:16:44;3.60;99.90
27667;DHT22;15074;50.940;5.282;2024-03-08T03:19:14;3.60;99.90
27667;DHT22;15074;50.940;5.282;2024-03-08T03:21:44;3.60;99.90
27667;DHT22;15074;50.940;5.282;2024-03-08T03:24:18;3.60;99.90
27667;DHT22;15074;50.940;5.282;2024-03-08T03:27:12;3.60;99.90
27667;DHT22;15074;50.940;5.282;2024-03-08T03:29:45;3.60;99.90
27667;DHT22;15074;50.940;5.282;2024-03-08T03:32:20;3.60;99.90
27667;DHT22;15074;50.940;5.282;2024-03-08T03:35:17;3.50;99.90
27667;DHT22;15074;50.940;5.282;2024-03-08T03:37:44;3.50;99.90
27667;DHT22;15074;50.940;5.282;2024-03-08T03:40:18;3.50;99.90
27667;DHT22;15074;50.940;5.282;2024-03-08T03:42:54;3.50;99.90
27667;DHT22;15074;50.940;5.282;2024-03-08T03:45:20;3.40;99.90
27667;DHT22;15074;50.940;5.282;2024-03-08T03:47:48;3.40;99.90
27667;DHT22;15074;50.940;5.282;2024-03-08T03:50:24;3.40;99.90
27667;DHT22;15074;50.940;5.282;2024-03-08T03:53:08;3.40;99.90
27667;DHT22;15074;50.940;5.282;2024-03-08T03:55:51;3.40;99.90
27667;DHT22;15074;50.940;5.282;2024-03-08T03:58:18;3.40;99.90
27667;DHT22;15074;50.940;5.282;2024-03-08T04:00:49;3.30;99.90
27667;DHT22;15074;50.940;5.282;2024-03-08T04:03:51;3.30;99.90
27667;DHT22;15074;50.940;5.282;2024-03-08T04:06:17;3.30;99.90
27667;DHT22;15074;50.940;5.282;2024-03-08T04:09:05;3.30;99.90
27667;DHT22;15074;50.940;5.282;2024-03-08T04:11:53;3.30;99.90
27667;DHT22;15074;50.940;5.282;2024-03-08T04:14:28;3.40;99.90
27667;DHT22;15074;50.940;5.282;2024-03-08T04:16:54;3.30;99.90
27667;DHT22;15074;50.940;5.282;2024-03-08T04:19:21;3.30;99.90
27667;DHT22;15074;50.940;5.282;2024-03-08T04:21:48;3.20;99.90
27667;DHT22;15074;50.940;5.282;2024-03-08T04:24:21;3.20;99.90
27667;DHT22;15074;50.940;5.282;2024-03-08T04:26:53;3.20;99.90
27667;DHT22;15074;50.940;5.282;2024-03-08T04:29:23;3.10;99.90
27667;DHT22;15074;50.940;5.282;2024-03-08T04:31:51;3.00;99.90
27667;DHT22;15074;50.940;5.282;2024-03-08T04:34:25;3.00;99.90
27667;DHT22;15074;50.940;5.282;2024-03-08T04:36:58;3.00;99.90
27667;DHT22;15074;50.940;5.282;2024-03-08T04:39:31;3.00;99.90
27667;DHT22;15074;50.940;5.282;2024-03-08T04:42:10;3.10;99.90
27667;DHT22;15074;50.940;5.282;2024-03-08T04:44:38;3.10;99.90
27667;DHT22;15074;50.940;5.282;2024-03-08T04:47:08;3.10;99.90
27667;DHT22;15074;50.940;5.282;2024-03-08T04:49:36;3.20;99.90
27667;DHT22;15074;50.940;5.282;2024-03-08T04:52:03;3.10;99.90
27667;DHT22;15074;50.940;5.282;2024-03-08T04:54:32;3.10;99.90
27667;DHT22;15074;50.940;5.282;2024-03-08T04:56:58;3.10;99.90
27667;DHT22;15074;50.940;5.282;2024-03-08T04:59:27;3.10;99.90
27667;DHT22;15074;50.940;5.282;2024-03-08T05:01:54;3.10;99.90
27667;DHT22;15074;50.940;5.282;2024-03-08T05:07:27;3.00;99.90
27667;DHT22;15074;50.940;5.282;2024-03-08T05:09:55;3.00;99.90
27667;DHT22;15074;50.940;5.282;2024-03-08T05:12:22;3.00;99.90
27667;DHT22;15074;50.940;5.282;2024-03-08T05:14:54;3.00;99.90
27667;DHT22;15074;50.940;5.282;2024-03-08T05:17:38;3.00;99.90
27667;DHT22;15074;50.940;5.282;2024-03-08T05:20:08;2.90;99.90
27667;DHT22;15074;50.940;5.282;2024-03-08T05:22:43;2.90;99.90
27667;DHT22;15074;50.940;5.282;2024-03-08T05:25:12;2.90;99.90
27667;DHT22;15074;50.940;5.282;2024-03-08T05:27:40;2.90;99.90
27667;DHT22;15074;50.940;5.282;2024-03-08T05:30:07;2.90;99.90
27667;DHT22;15074;50.940;5.282;2024-03-08T05:32:43;3.00;99.90
27667;DHT22;15074;50.940;5.282;2024-03-08T05:35:18;3.00;99.90
27667;DHT22;15074;50.940;5.282;2024-03-08T05:37:47;2.90;99.90
27667;DHT22;15074;50.940;5.282;2024-03-08T05:40:14;2.90;99.90
27667;DHT22;15074;50.940;5.282;2024-03-08T05:42:41;2.90;99.90
27667;DHT22;15074;50.940;5.282;2024-03-08T05:45:08;3.00;99.90
27667;DHT22;15074;50.940;5.282;2024-03-08T05:47:35;2.90;99.90
27667;DHT22;15074;50.940;5.282;2024-03-08T05:50:02;2.90;99.90
27667;DHT22;15074;50.940;5.282;2024-03-08T05:52:29;3.00;99.90
27667;DHT22;15074;50.940;5.282;2024-03-08T05:54:55;3.00;99.90
27667;DHT22;15074;50.940;5.282;2024-03-08T05:57:20;2.90;99.90
27667;DHT22;15074;50.940;5.282;2024-03-08T05:59:51;3.00;99.90
27667;DHT22;15074;50.940;5.282;2024-03-08T06:02:22;2.90;99.90
27667;DHT22;15074;50.940;5.282;2024-03-08T06:04:48;2.90;99.90
27667;DHT22;15074;50.940;5.282;2024-03-08T06:07:15;2.90;99.90
27667;DHT22;15074;50.940;5.282;2024-03-08T06:09:52;3.00;99.90
27667;DHT22;15074;50.940;5.282;2024-03-08T06:12:34;3.00;99.90
27667;DHT22;15074;50.940;5.282;2024-03-08T06:15:06;3.00;99.90
27667;DHT22;15074;50.940;5.282;2024-03-08T06:17:32;3.10;99.90
27667;DHT22;15074;50.940;5.282;2024-03-08T06:20:00;3.00;99.90
27667;DHT22;15074;50.940;5.282;2024-03-08T06:22:26;3.00;99.90
27667;DHT22;15074;50.940;5.282;2024-03-08T06:24:52;3.10;99.90
27667;DHT22;15074;50.940;5.282;2024-03-08T06:27:19;3.20;99.90
27667;DHT22;15074;50.940;5.282;2024-03-08T06:29:45;3.20;99.90
27667;DHT22;15074;50.940;5.282;2024-03-08T06:32:11;3.30;99.90
27667;DHT22;15074;50.940;5.282;2024-03-08T06:34:37;3.20;99.90
27667;DHT22;15074;50.940;5.282;2024-03-08T06:37:02;3.20;99.90
27667;DHT22;15074;50.940;5.282;2024-03-08T06:39:28;3.30;99.90
27667;DHT22;15074;50.940;5.282;2024-03-08T06:41:57;3.60;99.90
27667;DHT22;15074;50.940;5.282;2024-03-08T06:44:23;4.00;99.90
27667;DHT22;15074;50.940;5.282;2024-03-08T06:46:48;4.20;99.90
27667;DHT22;15074;50.940;5.282;2024-03-08T06:49:14;4.40;99.90
27667;DHT22;15074;50.940;5.282;2024-03-08T06:54:16;4.70;99.90
27667;DHT22;15074;50.940;5.282;2024-03-08T06:59:17;5.30;99.90
27667;DHT22;15074;50.940;5.282;2024-03-08T07:04:18;5.40;99.90
27667;DHT22;15074;50.940;5.282;2024-03-08T07:06:45;5.90;99.90
27667;DHT22;15074;50.940;5.282;2024-03-08T07:09:11;6.10;99.90
27667;DHT22;15074;50.940;5.282;2024-03-08T07:11:37;5.90;99.90
27667;DHT22;15074;50.940;5.282;2024-03-08T07:14:03;6.10;99.90
27667;DHT22;15074;50.940;5.282;2024-03-08T07:16:31;6.30;99.90
27667;DHT22;15074;50.940;5.282;2024-03-08T07:18:56;6.30;99.90
27667;DHT22;15074;50.940;5.282;2024-03-08T07:21:24;6.70;99.90
27667;DHT22;15074;50.940;5.282;2024-03-08T07:23:50;6.70;99.90
27667;DHT22;15074;50.940;5.282;2024-03-08T07:26:39;6.50;99.90
27667;DHT22;15074;50.940;5.282;2024-03-08T07:29:04;6.60;99.90
27667;DHT22;15074;50.940;5.282;2024-03-08T07:31:30;7.00;99.90
27667;DHT22;15074;50.940;5.282;2024-03-08T07:34:07;7.40;99.90
27667;DHT22;15074;50.940;5.282;2024-03-08T07:36:36;6.70;99.90
27667;DHT22;15074;50.940;5.282;2024-03-08T07:39:02;6.20;99.90
27667;DHT22;15074;50.940;5.282;2024-03-08T07:41:27;6.40;99.90
27667;DHT22;15074;50.940;5.282;2024-03-08T07:43:56;6.40;99.90
27667;DHT22;15074;50.940;5.282;2024-03-08T07:46:21;6.40;99.90
27667;DHT22;15074;50.940;5.282;2024-03-08T07:48:48;6.30;99.90
27667;DHT22;15074;50.940;5.282;2024-03-08T07:53:49;5.90;99.90
27667;DHT22;15074;50.940;5.282;2024-03-08T08:06:36;7.10;99.90
27667;DHT22;15074;50.940;5.282;2024-03-08T08:09:03;7.80;99.90
27667;DHT22;15074;50.940;5.282;2024-03-08T08:11:29;8.40;99.90
27667;DHT22;15074;50.940;5.282;2024-03-08T08:13:54;8.40;99.90
27667;DHT22;15074;50.940;5.282;2024-03-08T08:16:23;8.60;99.90
27667;DHT22;15074;50.940;5.282;2024-03-08T08:18:49;8.30;99.90
27667;DHT22;15074;50.940;5.282;2024-03-08T08:21:15;7.90;99.90
27667;DHT22;15074;50.940;5.282;2024-03-08T08:23:41;8.30;99.90
27667;DHT22;15074;50.940;5.282;2024-03-08T08:26:07;9.00;99.90
27667;DHT22;15074;50.940;5.282;2024-03-08T08:28:33;8.80;99.90
27667;DHT22;15074;50.940;5.282;2024-03-08T08:30:59;8.50;99.90
27667;DHT22;15074;50.940;5.282;2024-03-08T08:33:25;9.20;99.90
27667;DHT22;15074;50.940;5.282;2024-03-08T08:35:51;10.00;99.90
27667;DHT22;15074;50.940;5.282;2024-03-08T08:38:19;9.90;99.90
27667;DHT22;15074;50.940;5.282;2024-03-08T08:40:45;9.00;99.90
27667;DHT22;15074;50.940;5.282;2024-03-08T08:43:13;9.60;99.90
27667;DHT22;15074;50.940;5.282;2024-03-08T08:45:39;9.20;99.90
27667;DHT22;15074;50.940;5.282;2024-03-08T08:48:06;10.10;99.90
27667;DHT22;15074;50.940;5.282;2024-03-08T08:50:32;9.30;99.90
27667;DHT22;15074;50.940;5.282;2024-03-08T08:52:57;9.00;99.90
27667;DHT22;15074;50.940;5.282;2024-03-08T08:55:24;9.20;99.90
27667;DHT22;15074;50.940;5.282;2024-03-08T08:57:53;9.30;99.90
27667;DHT22;15074;50.940;5.282;2024-03-08T09:00:19;9.70;99.90
27667;DHT22;15074;50.940;5.282;2024-03-08T09:02:46;9.90;99.90
27667;DHT22;15074;50.940;5.282;2024-03-08T09:05:12;9.90;99.90
27667;DHT22;15074;50.940;5.282;2024-03-08T09:07:40;9.40;99.90
27667;DHT22;15074;50.940;5.282;2024-03-08T09:10:06;10.20;99.90
27667;DHT22;15074;50.940;5.282;2024-03-08T09:12:32;9.50;99.90
27667;DHT22;15074;50.940;5.282;2024-03-08T09:14:58;10.20;99.90
27667;DHT22;15074;50.940;5.282;2024-03-08T09:17:25;10.40;99.90
27667;DHT22;15074;50.940;5.282;2024-03-08T09:19:51;10.80;99.90
27667;DHT22;15074;50.940;5.282;2024-03-08T09:22:17;11.30;99.90
27667;DHT22;15074;50.940;5.282;2024-03-08T09:24:43;11.20;99.90
27667;DHT22;15074;50.940;5.282;2024-03-08T09:27:09;10.50;99.90
27667;DHT22;15074;50.940;5.282;2024-03-08T09:29:35;10.50;99.90
27667;DHT22;15074;50.940;5.282;2024-03-08T09:32:01;10.20;99.90
27667;DHT22;15074;50.940;5.282;2024-03-08T09:34:27;10.40;99.90
27667;DHT22;15074;50.940;5.282;2024-03-08T09:36:53;10.30;99.90
27667;DHT22;15074;50.940;5.282;2024-03-08T09:39:19;10.80;99.90
27667;DHT22;15074;50.940;5.282;2024-03-08T09:41:52;10.50;99.90
27667;DHT22;15074;50.940;5.282;2024-03-08T09:44:17;11.60;99.90
27667;DHT22;15074;50.940;5.282;2024-03-08T09:46:45;11.20;99.90
27667;DHT22;15074;50.940;5.282;2024-03-08T09:49:12;11.10;99.90
27667;DHT22;15074;50.940;5.282;2024-03-08T09:51:38;11.50;99.90
27667;DHT22;15074;50.940;5.282;2024-03-08T09:54:06;12.00;99.90
27667;DHT22;15074;50.940;5.282;2024-03-08T09:56:35;11.90;99.90
27667;DHT22;15074;50.940;5.282;2024-03-08T09:59:02;11.60;99.90
27667;DHT22;15074;50.940;5.282;2024-03-08T10:01:37;12.30;99.90
27667;DHT22;15074;50.940;5.282;2024-03-08T10:04:04;12.10;99.90
27667;DHT22;15074;50.940;5.282;2024-03-08T10:06:30;11.90;99.90
27667;DHT22;15074;50.940;5.282;2024-03-08T10:08:57;11.60;99.90
27667;DHT22;15074;50.940;5.282;2024-03-08T10:11:24;11.30;99.90
27667;DHT22;15074;50.940;5.282;2024-03-08T10:13:50;12.40;99.90
27667;DHT22;15074;50.940;5.282;2024-03-08T10:16:16;11.90;99.90
27667;DHT22;15074;50.940;5.282;2024-03-08T10:18:47;11.40;99.90
27667;DHT22;15074;50.940;5.282;2024-03-08T10:21:13;11.90;99.90
27667;DHT22;15074;50.940;5.282;2024-03-08T10:23:40;12.20;99.90
27667;DHT22;15074;50.940;5.282;2024-03-08T10:26:15;12.20;99.90
27667;DHT22;15074;50.940;5.282;2024-03-08T10:28:48;13.50;99.90
27667;DHT22;15074;50.940;5.282;2024-03-08T10:31:18;14.60;99.90
27667;DHT22;15074;50.940;5.282;2024-03-08T10:33:45;13.60;99.90
27667;DHT22;15074;50.940;5.282;2024-03-08T10:36:13;13.80;99.90
27667;DHT22;15074;50.940;5.282;2024-03-08T10:38:40;12.90;99.90
27667;DHT22;15074;50.940;5.282;2024-03-08T10:41:06;13.00;99.90
27667;DHT22;15074;50.940;5.282;2024-03-08T10:49:04;13.00;99.90
27667;DHT22;15074;50.940;5.282;2024-03-08T10:51:32;11.70;99.90
27667;DHT22;15074;50.940;5.282;2024-03-08T10:53:59;12.20;99.90
27667;DHT22;15074;50.940;5.282;2024-03-08T10:56:28;12.80;99.90
27667;DHT22;15074;50.940;5.282;2024-03-08T10:58:54;13.40;99.90
27667;DHT22;15074;50.940;5.282;2024-03-08T11:01:21;13.60;99.90
27667;DHT22;15074;50.940;5.282;2024-03-08T11:03:48;14.50;99.90
27667;DHT22;15074;50.940;5.282;2024-03-08T11:09:32;14.10;99.90
27667;DHT22;15074;50.940;5.282;2024-03-08T11:12:37;13.90;99.90
27667;DHT22;15074;50.940;5.282;2024-03-08T11:15:12;14.70;99.90
27667;DHT22;15074;50.940;5.282;2024-03-08T11:17:45;13.50;99.90
27667;DHT22;15074;50.940;5.282;2024-03-08T11:20:23;14.20;99.90
27667;DHT22;15074;50.940;5.282;2024-03-08T11:22:52;14.60;99.90
27667;DHT22;15074;50.940;5.282;2024-03-08T11:25:35;15.30;99.90
27667;DHT22;15074;50.940;5.282;2024-03-08T11:28:17;15.60;99.90
27667;DHT22;15074;50.940;5.282;2024-03-08T11:33:27;13.70;99.90
27667;DHT22;15074;50.940;5.282;2024-03-08T11:36:19;12.90;99.90
27667;DHT22;15074;50.940;5.282;2024-03-08T11:38:48;14.00;99.90
27667;DHT22;15074;50.940;5.282;2024-03-08T11:41:24;15.20;99.90
27667;DHT22;15074;50.940;5.282;2024-03-08T11:44:05;15.30;99.90
27667;DHT22;15074;50.940;5.282;2024-03-08T11:46:31;14.00;99.90
27667;DHT22;15074;50.940;5.282;2024-03-08T11:48:57;13.30;99.90
27667;DHT22;15074;50.940;5.282;2024-03-08T11:51:23;14.10;99.90
27667;DHT22;15074;50.940;5.282;2024-03-08T11:53:49;15.10;99.90
27667;DHT22;15074;50.940;5.282;2024-03-08T11:56:15;14.50;99.90
27667;DHT22;15074;50.940;5.282;2024-03-08T11:58:45;14.90;99.90
27667;DHT22;15074;50.940;5.282;2024-03-08T12:01:17;14.60;99.90
27667;DHT22;15074;50.940;5.282;2024-03-08T12:03:43;14.90;99.90
27667;DHT22;15074;50.940;5.282;2024-03-08T12:06:10;14.90;99.90
27667;DHT22;15074;50.940;5.282;2024-03-08T12:08:36;15.40;99.90
27667;DHT22;15074;50.940;5.282;2024-03-08T12:11:04;15.60;99.90
27667;DHT22;15074;50.940;5.282;2024-03-08T12:13:35;16.50;99.90
27667;DHT22;15074;50.940;5.282;2024-03-08T12:16:04;16.50;99.90
27667;DHT22;15074;50.940;5.282;2024-03-08T12:18:38;14.80;99.90
27667;DHT22;15074;50.940;5.282;2024-03-08T12:21:05;14.90;99.90
27667;DHT22;15074;50.940;5.282;2024-03-08T12:23:33;15.50;99.90
27667;DHT22;15074;50.940;5.282;2024-03-08T12:26:16;14.40;99.90
27667;DHT22;15074;50.940;5.282;2024-03-08T12:28:45;15.00;99.90
27667;DHT22;15074;50.940;5.282;2024-03-08T12:31:17;15.50;99.90
27667;DHT22;15074;50.940;5.282;2024-03-08T12:33:53;15.80;99.90
27667;DHT22;15074;50.940;5.282;2024-03-08T12:36:21;16.40;99.90
27667;DHT22;15074;50.940;5.282;2024-03-08T12:38:47;15.30;99.90
27667;DHT22;15074;50.940;5.282;2024-03-08T12:41:19;14.70;99.90
27667;DHT22;15074;50.940;5.282;2024-03-08T12:43:46;15.10;99.90
27667;DHT22;15074;50.940;5.282;2024-03-08T12:46:22;15.10;99.90
27667;DHT22;15074;50.940;5.282;2024-03-08T12:48:51;15.50;99.90
27667;DHT22;15074;50.940;5.282;2024-03-08T12:51:20;14.80;99.90
27667;DHT22;15074;50.940;5.282;2024-03-08T12:53:46;15.80;99.90
27667;DHT22;15074;50.940;5.282;2024-03-08T12:56:13;16.20;99.90
27667;DHT22;15074;50.940;5.282;2024-03-08T12:58:40;15.00;99.90
27667;DHT22;15074;50.940;5.282;2024-03-08T13:01:06;15.00;99.90
27667;DHT22;15074;50.940;5.282;2024-03-08T13:03:35;14.60;99.90
27667;DHT22;15074;50.940;5.282;2024-03-08T13:06:05;14.10;99.90
27667;DHT22;15074;50.940;5.282;2024-03-08T13:08:38;14.30;99.90
27667;DHT22;15074;50.940;5.282;2024-03-08T13:11:09;15.20;99.90
27667;DHT22;15074;50.940;5.282;2024-03-08T13:13:37;15.00;99.90
27667;DHT22;15074;50.940;5.282;2024-03-08T13:16:06;14.90;99.90
27667;DHT22;15074;50.940;5.282;2024-03-08T13:18:34;15.40;99.90
27667;DHT22;15074;50.940;5.282;2024-03-08T13:21:00;15.50;99.90
27667;DHT22;15074;50.940;5.282;2024-03-08T13:23:30;15.00;99.90
27667;DHT22;15074;50.940;5.282;2024-03-08T13:25:56;14.90;99.90
27667;DHT22;15074;50.940;5.282;2024-03-08T13:28:22;14.70;99.90
27667;DHT22;15074;50.940;5.282;2024-03-08T13:30:53;15.00;99.90
27667;DHT22;15074;50.940;5.282;2024-03-08T13:33:19;14.90;99.90
27667;DHT22;15074;50.940;5.282;2024-03-08T13:35:49;14.50;99.90
27667;DHT22;15074;50.940;5.282;2024-03-08T13:38:16;14.40;99.90
27667;DHT22;15074;50.940;5.282;2024-03-08T13:40:45;14.60;99.90
27667;DHT22;15074;50.940;5.282;2024-03-08T13:43:12;15.20;99.90
27667;DHT22;15074;50.940;5.282;2024-03-08T13:45:38;15.80;99.90
27667;DHT22;15074;50.940;5.282;2024-03-08T13:48:04;15.90;99.90
27667;DHT22;15074;50.940;5.282;2024-03-08T13:50:30;16.10;99.90
27667;DHT22;15074;50.940;5.282;2024-03-08T13:52:56;15.80;99.90
27667;DHT22;15074;50.940;5.282;2024-03-08T13:55:22;15.90;99.90
27667;DHT22;15074;50.940;5.282;2024-03-08T13:57:49;15.80;99.90
27667;DHT22;15074;50.940;5.282;2024-03-08T14:00:16;15.40;99.90
27667;DHT22;15074;50.940;5.282;2024-03-08T14:02:42;15.90;99.90
27667;DHT22;15074;50.940;5.282;2024-03-08T14:05:08;15.40;99.90
27667;DHT22;15074;50.940;5.282;2024-03-08T14:07:35;15.30;99.90
27667;DHT22;15074;50.940;5.282;2024-03-08T14:10:01;14.30;99.90
27667;DHT22;15074;50.940;5.282;2024-03-08T14:12:27;13.90;99.90
27667;DHT22;15074;50.940;5.282;2024-03-08T14:14:53;13.70;99.90
27667;DHT22;15074;50.940;5.282;2024-03-08T14:17:19;13.40;99.90
27667;DHT22;15074;50.940;5.282;2024-03-08T14:19:44;13.80;99.90
27667;DHT22;15074;50.940;5.282;2024-03-08T14:22:10;14.40;99.90
27667;DHT22;15074;50.940;5.282;2024-03-08T14:24:40;14.60;99.90
27667;DHT22;15074;50.940;5.282;2024-03-08T14:27:07;15.30;99.90
27667;DHT22;15074;50.940;5.282;2024-03-08T14:29:34;15.50;99.90
27667;DHT22;15074;50.940;5.282;2024-03-08T14:31:59;15.40;99.90
27667;DHT22;15074;50.940;5.282;2024-03-08T14:34:26;15.00;99.90
27667;DHT22;15074;50.940;5.282;2024-03-08T14:36:54;14.80;99.90
27667;DHT22;15074;50.940;5.282;2024-03-08T14:39:20;14.70;99.90
27667;DHT22;15074;50.940;5.282;2024-03-08T14:41:50;15.00;99.90
27667;DHT22;15074;50.940;5.282;2024-03-08T14:44:19;14.80;99.90
27667;DHT22;15074;50.940;5.282;2024-03-08T14:46:45;14.80;99.90
27667;DHT22;15074;50.940;5.282;2024-03-08T14:49:12;14.70;99.90
27667;DHT22;15074;50.940;5.282;2024-03-08T14:51:37;14.90;99.90
27667;DHT22;15074;50.940;5.282;2024-03-08T14:54:03;15.10;99.90
27667;DHT22;15074;50.940;5.282;2024-03-08T14:56:32;15.40;99.90
27667;DHT22;15074;50.940;5.282;2024-03-08T14:58:58;14.50;99.90
27667;DHT22;15074;50.940;5.282;2024-03-08T15:01:25;14.00;99.90
27667;DHT22;15074;50.940;5.282;2024-03-08T15:03:55;13.60;99.90
27667;DHT22;15074;50.940;5.282;2024-03-08T15:06:21;13.60;99.90
27667;DHT22;15074;50.940;5.282;2024-03-08T15:08:48;13.40;99.90
27667;DHT22;15074;50.940;5.282;2024-03-08T15:11:13;13.40;99.90
27667;DHT22;15074;50.940;5.282;2024-03-08T15:13:51;13.10;99.90
27667;DHT22;15074;50.940;5.282;2024-03-08T15:16:18;12.90;99.90
27667;DHT22;15074;50.940;5.282;2024-03-08T15:18:46;12.90;99.90
27667;DHT22;15074;50.940;5.282;2024-03-08T15:21:14;12.80;99.90
27667;DHT22;15074;50.940;5.282;2024-03-08T15:23:50;12.90;99.90
27667;DHT22;15074;50.940;5.282;2024-03-08T15:26:17;13.00;99.90
27667;DHT22;15074;50.940;5.282;2024-03-08T15:28:44;13.10;99.90
27667;DHT22;15074;50.940;5.282;2024-03-08T15:31:11;13.20;99.90
27667;DHT22;15074;50.940;5.282;2024-03-08T15:33:38;12.90;99.90
27667;DHT22;15074;50.940;5.282;2024-03-08T15:36:11;12.70;99.90
27667;DHT22;15074;50.940;5.282;2024-03-08T15:38:39;12.70;99.90
27667;DHT22;15074;50.940;5.282;2024-03-08T15:41:05;12.70;99.90
27667;DHT22;15074;50.940;5.282;2024-03-08T15:43:40;12.80;99.90
27667;DHT22;15074;50.940;5.282;2024-03-08T15:46:07;12.70;99.90
27667;DHT22;15074;50.940;5.282;2024-03-08T15:48:33;12.70;99.90
27667;DHT22;15074;50.940;5.282;2024-03-08T15:51:02;12.80;99.90
27667;DHT22;15074;50.940;5.282;2024-03-08T15:53:37;12.60;99.90
27667;DHT22;15074;50.940;5.282;2024-03-08T15:56:04;12.60;99.90
27667;DHT22;15074;50.940;5.282;2024-03-08T15:58:34;12.60;99.90
27667;DHT22;15074;50.940;5.282;2024-03-08T16:01:03;12.60;99.90
27667;DHT22;15074;50.940;5.282;2024-03-08T16:03:32;12.50;99.90
27667;DHT22;15074;50.940;5.282;2024-03-08T16:05:58;12.50;99.90
27667;DHT22;15074;50.940;5.282;2024-03-08T16:08:25;12.20;99.90
27667;DHT22;15074;50.940;5.282;2024-03-08T16:10:52;12.10;99.90
27667;DHT22;15074;50.940;5.282;2024-03-08T16:13:23;12.10;99.90
27667;DHT22;15074;50.940;5.282;2024-03-08T16:15:51;12.20;99.90
27667;DHT22;15074;50.940;5.282;2024-03-08T16:18:17;12.20;99.90
27667;DHT22;15074;50.940;5.282;2024-03-08T16:20:47;12.10;99.90
27667;DHT22;15074;50.940;5.282;2024-03-08T16:23:13;12.20;99.90
27667;DHT22;15074;50.940;5.282;2024-03-08T16:25:45;12.10;99.90
27667;DHT22;15074;50.940;5.282;2024-03-08T16:28:12;12.00;99.90
27667;DHT22;15074;50.940;5.282;2024-03-08T16:30:39;11.90;99.90